Alto, New Mexico
Current Conditions -  °F | °C
As of 8:35 PM on Saturday 22 Nov 2014 (Local Time) from KSRR Reporting Station
Clear Clear  
Wind Chill: 41°   Ceiling: Unl
Heat Index: 46°   Visibility: 10mi
Dew Point: 14°   Wind: 12mph
Humidity: 27%   Direction: 280°W
Pressure: 29.88"   Gusts: 17mph
Location:  33.39°N, 105.69°W
Report Text: KSRR 230335Z AUTO 28010G15KT 10SM CLR 08/M10 A2988 RMK AO2
Loading
Personal Weather Stations






























Interactive Weather Map New forecast layout! Learn more

10-Day Weather Forecast

Advertisements
Track Severe Weather on mobile